Time;durP1;ratioP1;P1;durP2;ratioP2;P2;SDS_P1;SDS_P2;PMS_P1;PMS_P2;Temp;Humidity;BMP_temperature;BMP_pressure;BME280_temperature;BME280_humidity;BME280_pressure;Samples;Min_cycle;Max_cycle;Signal;HPM_P1;HPM_P2
2022/08/10 00:00:19;;;;;;;4.00;2.50;;;;;;;17.08;100.00;102914.78;7390928;19;20018;-76
2022/08/10 00:02:15;;;;;;;4.07;2.53;;;;;;;17.06;100.00;102925.34;7389589;19;20015;-76
2022/08/10 00:04:48;;;;;;;4.20;2.30;;;;;;;17.01;100.00;102919.06;7385220;19;20481;-76
2022/08/10 00:07:18;;;;;;;5.82;3.00;;;;;;;16.97;100.00;102922.50;7391349;19;20046;-76
2022/08/10 00:09:48;;;;;;;4.80;2.50;;;;;;;16.91;100.00;102917.09;7386636;19;20509;-76
2022/08/10 00:12:21;;;;;;;4.55;2.90;;;;;;;16.89;100.00;102916.16;7389554;19;20572;-76
2022/08/10 00:15:15;;;;;;;5.38;2.78;;;;;;;16.86;100.00;102924.06;7385613;19;20442;-77
2022/08/10 00:18:07;;;;;;;5.28;2.63;;;;;;;16.80;100.00;102916.88;7388050;19;20078;-75
2022/08/10 00:20:42;;;;;;;6.15;3.28;;;;;;;16.76;100.00;102920.31;7389316;19;20011;-76
2022/08/10 00:23:12;;;;;;;5.10;2.92;;;;;;;16.73;100.00;102914.06;7384545;19;20479;-78
2022/08/10 00:25:42;;;;;;;5.15;2.67;;;;;;;16.72;100.00;102920.22;7379918;19;20007;-74
2022/08/10 00:28:12;;;;;;;5.55;2.78;;;;;;;16.66;100.00;102913.94;7376799;19;20327;-75
2022/08/10 00:30:42;;;;;;;5.95;2.78;;;;;;;16.61;100.00;102910.28;7381498;19;20015;-77
2022/08/10 00:33:12;;;;;;;5.95;2.85;;;;;;;16.59;100.00;102903.16;7383759;19;20007;-75
2022/08/10 00:35:44;;;;;;;4.05;2.78;;;;;;;16.58;100.00;102906.69;7379743;19;20007;-76
2022/08/10 00:38:14;;;;;;;4.18;2.45;;;;;;;16.54;100.00;102905.72;7380217;19;20057;-76
2022/08/10 00:40:44;;;;;;;4.53;2.75;;;;;;;16.52;100.00;102910.09;7381154;19;20031;-75
2022/08/10 00:43:14;;;;;;;6.28;2.85;;;;;;;16.47;100.00;102919.69;7377332;19;20030;-76
2022/08/10 00:45:54;;;;;;;5.00;2.75;;;;;;;16.47;100.00;102914.41;7375884;19;20025;-76
2022/08/10 00:48:34;;;;;;;5.45;2.63;;;;;;;16.41;100.00;102908.06;7377846;19;20010;-76
2022/08/10 00:51:10;;;;;;;4.85;2.80;;;;;;;16.38;100.00;102908.91;7377835;19;20022;-75
2022/08/10 00:53:40;;;;;;;4.68;2.90;;;;;;;16.38;100.00;102913.28;7367720;19;20010;-75
2022/08/10 00:56:11;;;;;;;4.55;2.60;;;;;;;16.37;100.00;102907.09;7377823;19;20019;-76
2022/08/10 00:59:07;;;;;;;5.65;2.90;;;;;;;16.31;100.00;102905.22;7375508;19;20660;-76
2022/08/10 01:01:39;;;;;;;6.40;2.85;;;;;;;16.30;100.00;102908.72;7375586;19;20014;-75
2022/08/10 01:04:34;;;;;;;6.00;3.00;;;;;;;16.28;100.00;102909.53;7371780;19;20572;-76
2022/08/10 01:07:40;;;;;;;5.93;3.50;;;;;;;16.23;100.00;102909.44;7380896;19;20003;-76
2022/08/10 01:10:24;;;;;;;5.32;3.00;;;;;;;16.21;100.00;102904.97;7375848;19;20431;-76
2022/08/10 01:13:05;;;;;;;5.00;2.90;;;;;;;16.18;100.00;102900.50;7376074;19;20011;-76
2022/08/10 01:15:53;;;;;;;8.55;3.60;;;;;;;16.18;100.00;102897.84;7379173;19;20014;-77
2022/08/10 01:18:44;;;;;;;7.57;3.10;;;;;;;16.11;100.00;102892.38;7376266;19;20569;-76
2022/08/10 01:21:40;;;;;;;5.07;2.90;;;;;;;16.08;100.00;102890.56;7376849;19;20014;-77
2022/08/10 01:25:04;;;;;;;7.28;3.70;;;;;;;16.05;100.00;102885.19;7376710;19;20167;-75
2022/08/10 01:27:42;;;;;;;7.13;3.65;;;;;;;16.02;100.00;102898.34;7376223;19;20046;-78
2022/08/10 01:30:17;;;;;;;6.15;3.10;;;;;;;15.98;100.00;102891.19;7382550;19;20265;-76
2022/08/10 01:32:53;;;;;;;6.60;3.22;;;;;;;15.95;100.00;102885.84;7385565;19;20014;-77
2022/08/10 01:35:34;;;;;;;6.90;3.70;;;;;;;15.92;100.00;102889.31;7384589;19;20011;-76
2022/08/10 01:38:08;;;;;;;6.75;3.60;;;;;;;15.93;100.00;102898.13;7383171;19;20010;-75
2022/08/10 01:40:43;;;;;;;6.50;3.40;;;;;;;15.84;100.00;102885.56;7380887;19;20365;-77
2022/08/10 01:43:17;;;;;;;6.53;3.40;;;;;;;15.81;100.00;102890.78;7385596;19;20390;-78
2022/08/10 01:45:57;;;;;;;8.07;4.15;;;;;;;15.79;100.00;102895.16;7382236;19;20014;-77
2022/08/10 01:48:30;;;;;;;6.90;3.58;;;;;;;15.80;100.00;102890.75;7384172;19;20027;-75
2022/08/10 01:51:14;;;;;;;7.40;3.30;;;;;;;15.73;100.00;102887.06;7383724;19;20017;-76
2022/08/10 01:53:50;;;;;;;6.90;3.60;;;;;;;15.72;100.00;102895.88;7385018;19;20015;-76
2022/08/10 01:56:24;;;;;;;7.70;3.60;;;;;;;15.71;100.00;102891.44;7383092;19;20006;-74
2022/08/10 01:59:06;;;;;;;7.35;3.78;;;;;;;15.65;100.00;102892.16;7377387;19;20010;-78
2022/08/10 02:01:43;;;;;;;6.57;3.42;;;;;;;15.66;100.00;102893.06;7376667;19;20022;-75
2022/08/10 02:04:18;;;;;;;6.60;3.28;;;;;;;15.64;100.00;102889.47;7380577;19;20011;-76
2022/08/10 02:06:52;;;;;;;6.50;3.55;;;;;;;15.62;100.00;102888.56;7379686;19;20036;-75
2022/08/10 02:09:32;;;;;;;8.38;3.75;;;;;;;15.58;100.00;102889.38;7381965;19;20010;-76
2022/08/10 02:12:11;;;;;;;7.35;3.53;;;;;;;15.54;100.00;102887.47;7377363;19;20315;-77
2022/08/10 02:14:44;;;;;;;6.68;3.60;;;;;;;15.53;100.00;102890.97;7381407;19;20459;-76
2022/08/10 02:17:21;;;;;;;6.22;3.42;;;;;;;15.49;100.00;102878.53;7373255;19;20013;-75
2022/08/10 02:20:16;;;;;;;7.25;3.78;;;;;;;15.45;100.00;102887.22;7376922;19;20011;-78
2022/08/10 02:22:51;;;;;;;6.07;3.65;;;;;;;15.43;100.00;102883.66;7374197;19;20054;-76
2022/08/10 02:25:24;;;;;;;7.25;4.00;;;;;;;15.40;100.00;102878.28;7375676;19;20006;-76
2022/08/10 02:28:15;;;;;;;6.47;3.28;;;;;;;15.35;100.00;102881.69;7371544;19;20006;-77
2022/08/10 02:30:59;;;;;;;8.23;3.70;;;;;;;15.32;100.00;102881.63;7373227;19;20859;-75
2022/08/10 02:33:38;;;;;;;7.38;3.55;;;;;;;15.34;100.00;102887.84;7373345;19;20013;-75
2022/08/10 02:36:35;;;;;;;8.68;4.03;;;;;;;15.32;100.00;102889.56;7373802;19;20014;-78
2022/08/10 02:39:07;;;;;;;7.20;3.70;;;;;;;15.28;100.00;102884.16;7374067;19;20011;-76
2022/08/10 02:41:42;;;;;;;7.70;4.00;;;;;;;15.27;100.00;102883.25;7373614;19;20017;-75
2022/08/10 02:44:40;;;;;;;7.20;3.83;;;;;;;15.27;100.00;102883.25;7374283;19;20048;-78
2022/08/10 02:47:38;;;;;;;7.68;3.55;;;;;;;15.24;100.00;102874.34;7374231;19;20006;-78
2022/08/10 02:50:30;;;;;;;6.97;3.40;;;;;;;15.21;100.00;102872.50;7375040;19;20010;-78
2022/08/10 02:53:06;;;;;;;7.97;3.72;;;;;;;15.18;100.00;102866.25;7369002;19;20025;-77
2022/08/10 02:56:02;;;;;;;8.55;4.53;;;;;;;15.16;100.00;102863.56;7362953;19;20022;-78
2022/08/10 02:58:39;;;;;;;9.52;4.30;;;;;;;15.09;100.00;102866.91;7375307;19;20107;-80
2022/08/10 03:01:13;;;;;;;7.88;3.88;;;;;;;15.09;100.00;102864.25;7375304;19;20027;-78
2022/08/10 03:03:51;;;;;;;7.18;4.00;;;;;;;15.09;100.00;102856.34;7372518;19;20394;-79
2022/08/10 03:06:36;;;;;;;7.82;4.15;;;;;;;15.04;100.00;102855.31;7374341;19;20486;-78
2022/08/10 03:09:08;;;;;;;;;;;;;;;15.00;100.00;102861.38;7377276;19;20015;-78
2022/08/10 03:11:40;;;;;;;8.32;4.40;;;;;;;14.92;100.00;102854.97;7387174;19;20239;-77
2022/08/10 03:14:32;;;;;;;8.27;4.15;;;;;;;14.93;100.00;102855.03;7387724;19;20011;-78
2022/08/10 03:17:06;;;;;;;9.07;4.35;;;;;;;14.91;100.00;102851.44;7387912;19;20112;-79
2022/08/10 03:19:42;;;;;;;8.10;4.13;;;;;;;14.91;100.00;102861.13;7386638;19;20010;-77
2022/08/10 03:22:38;;;;;;;11.05;4.70;;;;;;;14.89;100.00;102857.53;7392986;19;20806;-78
2022/08/10 03:25:10;;;;;;;9.02;4.38;;;;;;;14.89;100.00;102847.84;7392236;19;20383;-78
2022/08/10 03:27:42;;;;;;;9.85;4.60;;;;;;;14.89;100.00;102846.97;7393379;19;20254;-79
2022/08/10 03:30:13;;;;;;;8.82;4.45;;;;;;;14.86;100.00;102853.06;7395623;19;20258;-78
2022/08/10 03:33:06;;;;;;;10.32;4.78;;;;;;;14.86;100.00;102849.53;7392841;19;20304;-78
2022/08/10 03:35:37;;;;;;;9.05;4.57;;;;;;;14.87;100.00;102853.97;7391014;19;20015;-78
2022/08/10 03:38:10;;;;;;;8.60;4.30;;;;;;;14.83;100.00;102854.72;7386217;19;20007;-78
2022/08/10 03:40:41;;;;;;;9.60;4.78;;;;;;;14.81;100.00;102853.78;7385508;19;20028;-78
2022/08/10 03:43:18;;;;;;;10.10;4.55;;;;;;;14.81;100.00;102853.78;7382595;19;20506;-77
2022/08/10 03:45:53;;;;;;;8.75;4.20;;;;;;;14.79;100.00;102842.28;7382069;19;20006;-78
2022/08/10 03:48:30;;;;;;;9.73;4.72;;;;;;;14.80;100.00;102850.25;7382745;19;20578;-78
2022/08/10 03:51:20;;;;;;;10.38;4.78;;;;;;;14.82;100.00;102851.19;7384087;19;20007;-78
2022/08/10 03:53:54;;;;;;;8.77;4.45;;;;;;;14.80;100.00;102849.34;7376786;19;20010;-78
2022/08/10 03:56:38;;;;;;;8.90;4.93;;;;;;;14.78;100.00;102849.31;7379022;19;20006;-78
2022/08/10 03:59:09;;;;;;;13.80;4.85;;;;;;;14.78;100.00;102843.13;7380880;19;20011;-78
2022/08/10 04:01:40;;;;;;;9.32;4.43;;;;;;;14.76;100.00;102847.47;7383126;19;20616;-78
2022/08/10 04:04:32;;;;;;;11.50;5.28;;;;;;;14.70;100.00;102843.81;7386306;19;20029;-78
2022/08/10 04:07:07;;;;;;;8.38;4.20;;;;;;;14.68;100.00;102840.22;7384477;19;20010;-78
2022/08/10 04:09:40;;;;;;;10.30;4.55;;;;;;;14.69;100.00;102846.41;7381546;19;20371;-78
2022/08/10 04:12:24;;;;;;;10.30;4.93;;;;;;;14.69;100.00;102849.06;7380954;19;20089;-78
2022/08/10 04:15:00;;;;;;;10.75;6.07;;;;;;;14.68;100.00;102856.09;7383188;19;20007;-78
2022/08/10 04:17:34;;;;;;;9.90;5.05;;;;;;;14.67;100.00;102856.94;7384839;19;20017;-77
2022/08/10 04:20:32;;;;;;;10.57;5.40;;;;;;;14.67;100.00;102850.75;7384202;19;20574;-77
2022/08/10 04:23:09;;;;;;;9.05;4.80;;;;;;;14.66;100.00;102849.84;7385869;19;20081;-78
2022/08/10 04:25:42;;;;;;;10.95;5.45;;;;;;;14.64;100.00;102850.66;7385113;19;20007;-78
2022/08/10 04:28:14;;;;;;;11.00;5.57;;;;;;;14.65;100.00;102847.19;7382892;19;20043;-79
2022/08/10 04:30:47;;;;;;;9.63;5.05;;;;;;;14.65;100.00;102853.34;7386062;19;20018;-78
2022/08/10 04:33:21;;;;;;;10.43;5.32;;;;;;;14.62;100.00;102847.97;7385481;19;20011;-79
2022/08/10 04:35:54;;;;;;;12.40;5.18;;;;;;;14.62;100.00;102850.63;7381443;19;20095;-78
2022/08/10 04:38:28;;;;;;;9.70;5.07;;;;;;;14.61;100.00;102851.47;7384930;19;20240;-78
2022/08/10 04:41:05;;;;;;;11.23;5.50;;;;;;;14.62;100.00;102842.69;7385892;19;20766;-78
2022/08/10 04:43:37;;;;;;;10.82;5.22;;;;;;;14.61;100.00;102845.28;7386978;19;20044;-78
2022/08/10 04:46:07;;;;;;;12.32;6.18;;;;;;;14.64;100.00;102845.38;7384247;19;20014;-78
2022/08/10 04:48:59;;;;;;;10.60;4.95;;;;;;;14.66;100.00;102852.50;7385630;19;20038;-78
2022/08/10 04:51:34;;;;;;;12.48;5.80;;;;;;;14.66;100.00;102843.69;7388033;19;20054;-80
2022/08/10 04:54:06;;;;;;;11.95;5.30;;;;;;;14.71;100.00;102847.34;7387082;19;20007;-80
2022/08/10 04:56:42;;;;;;;10.43;5.23;;;;;;;14.70;100.00;102843.81;7390514;19;20319;-78
2022/08/10 04:59:13;;;;;;;11.82;6.22;;;;;;;14.73;100.00;102840.38;7389358;19;20363;-78
2022/08/10 05:01:44;;;;;;;11.57;5.75;;;;;;;14.78;100.00;102853.69;7388690;19;20422;-78
2022/08/10 05:04:37;;;;;;;13.65;5.80;;;;;;;14.83;100.00;102846.78;7386681;19;20029;-78
2022/08/10 05:07:11;;;;;;;;;;;;;;;14.86;100.00;102853.06;7388209;19;20497;-79
2022/08/10 05:09:48;;;;;;;15.38;6.53;;;;;;;14.88;100.00;102856.63;7385353;19;19915;-77
2022/08/10 05:12:41;;;;;;;12.13;6.15;;;;;;;14.92;100.00;102841.75;7390462;19;20018;-80
2022/08/10 05:15:13;;;;;;;12.63;5.47;;;;;;;14.98;100.00;102847.22;7385196;19;20054;-78
2022/08/10 05:17:44;;;;;;;13.27;6.25;;;;;;;15.04;100.00;102852.66;7382648;19;20003;-78
2022/08/10 05:20:38;;;;;;;12.55;6.60;;;;;;;15.13;100.00;102844.97;7383495;19;20102;-78
2022/08/10 05:23:08;;;;;;;13.43;6.15;;;;;;;15.27;100.00;102840.94;7382567;19;20014;-79
2022/08/10 05:25:39;;;;;;;13.80;6.90;;;;;;;15.38;100.00;102844.75;7379630;19;20018;-78
2022/08/10 05:28:11;;;;;;;13.43;7.25;;;;;;;15.50;100.00;102853.88;7377540;19;20073;-78
2022/08/10 05:30:42;;;;;;;17.87;7.00;;;;;;;15.62;100.00;102844.47;7383524;19;20014;-78
2022/08/10 05:33:13;;;;;;;12.30;5.75;;;;;;;15.77;100.00;102846.59;7380488;19;20287;-79
2022/08/10 05:35:43;;;;;;;14.40;7.00;;;;;;;15.88;100.00;102846.84;7381583;19;20010;-79
2022/08/10 05:38:37;;;;;;;15.40;7.38;;;;;;;16.00;100.00;102855.09;7379802;19;19999;-79
2022/08/10 05:41:08;;;;;;;14.98;6.78;;;;;;;16.17;100.00;102850.16;7380898;19;20014;-78
2022/08/10 05:43:42;;;;;;;11.85;6.00;;;;;;;16.29;100.00;102847.78;7381318;19;20049;-80
2022/08/10 05:46:12;;;;;;;15.70;7.13;;;;;;;16.49;100.00;102854.41;7384743;19;20425;-79
2022/08/10 05:48:49;;;;;;;15.52;7.22;;;;;;;16.64;100.00;102849.41;7382050;19;20027;-78
2022/08/10 05:51:34;;;;;;;15.95;6.75;;;;;;;16.89;100.00;102844.59;7384099;19;20007;-80
2022/08/10 05:54:13;;;;;;;16.13;6.85;;;;;;;17.02;100.00;102851.03;7374947;19;20518;-78
2022/08/10 05:56:46;;;;;;;15.43;6.68;;;;;;;17.14;100.00;102849.50;7380572;19;20006;-80
2022/08/10 05:59:32;;;;;;;13.50;6.68;;;;;;;17.42;100.00;102842.91;7378760;19;20010;-79
2022/08/10 06:02:32;;;;;;;15.32;6.95;;;;;;;17.51;100.00;102839.53;7379640;19;20029;-79
2022/08/10 06:05:11;;;;;;;11.27;5.95;;;;;;;17.68;100.00;102839.84;7382296;19;20538;-79
2022/08/10 06:07:49;;;;;;;15.30;7.03;;;;;;;17.78;100.00;102842.63;7385752;19;20470;-80
2022/08/10 06:10:21;;;;;;;14.18;6.80;;;;;;;17.93;100.00;102836.66;7383671;19;20007;-79
2022/08/10 06:16:07;;;;;;;12.90;6.60;;;;;;;18.17;100.00;102841.41;7386037;19;20010;-79
2022/08/10 06:18:39;;;;;;;14.70;7.13;;;;;;;18.38;100.00;102832.84;7385028;19;20007;-81
2022/08/10 06:21:10;;;;;;;16.30;6.78;;;;;;;18.66;100.00;102831.44;7387678;19;20021;-82
2022/08/10 06:23:41;;;;;;;15.70;7.68;;;;;;;18.71;100.00;102837.72;7387034;19;20027;-80
2022/08/10 06:26:11;;;;;;;13.38;6.78;;;;;;;18.98;100.00;102835.31;7385736;19;20021;-79
2022/08/10 06:28:57;;;;;;;13.18;6.65;;;;;;;19.21;100.00;102839.09;7382301;19;20035;-79
2022/08/10 06:31:40;;;;;;;11.48;5.82;;;;;;;19.41;100.00;102833.06;7383875;19;20148;-79
2022/08/10 06:34:22;;;;;;;13.65;7.60;;;;;;;19.47;100.00;102835.75;7379854;19;20460;-80
2022/08/10 06:36:54;;;;;;;13.05;6.30;;;;;;;19.43;100.00;102833.97;7382528;19;20010;-79
2022/08/10 06:39:26;;;;;;;13.02;6.43;;;;;;;19.82;100.00;102839.59;7382444;19;20029;-79
2022/08/10 06:42:13;;;;;;;12.77;6.15;;;;;;;20.11;100.00;102834.44;7382360;19;20022;-78
2022/08/10 06:44:55;;;;;;;14.30;6.30;;;;;;;20.11;100.00;102836.22;7382777;19;20127;-79
2022/08/10 06:47:39;;;;;;;14.48;6.43;;;;;;;20.02;100.00;102836.16;7381295;19;20018;-79
2022/08/10 06:50:15;;;;;;;14.43;5.90;;;;;;;20.16;100.00;102839.78;7385380;19;20032;-79
2022/08/10 06:53:05;;;;;;;13.25;5.68;;;;;;;20.34;100.00;102842.53;7377706;19;20011;-78
2022/08/10 06:55:38;;;;;;;14.95;6.78;;;;;;;20.45;100.00;102848.84;7379810;19;20393;-78
2022/08/10 06:58:28;;;;;;;11.98;5.78;;;;;;;20.64;100.00;102849.81;7377781;19;20015;-79
2022/08/10 07:01:03;;;;;;;14.77;6.43;;;;;;;20.63;100.00;102837.38;7377245;19;20134;-76
2022/08/10 07:03:43;;;;;;;12.15;6.57;;;;;;;21.01;100.00;102845.44;7373253;19;20041;-76
2022/08/10 07:06:16;;;;;;;12.82;6.80;;;;;;;21.04;100.00;102840.09;7380608;19;20010;-76
2022/08/10 07:08:47;;;;;;;14.50;6.60;;;;;;;21.11;100.00;102852.56;7378991;19;20121;-79
2022/08/10 07:11:20;;;;;;;14.68;6.35;;;;;;;21.42;100.00;102847.28;7379235;19;20050;-79
2022/08/10 07:13:55;;;;;;;11.52;6.00;;;;;;;21.28;100.00;102841.06;7378149;19;20007;-79
2022/08/10 07:16:51;;;;;;;11.50;6.40;;;;;;;21.59;100.00;102841.94;7377236;19;20006;-80
2022/08/10 07:19:29;;;;;;;11.82;6.28;;;;;;;21.71;100.00;102840.16;7380465;19;20015;-81
2022/08/10 07:22:21;;;;;;;15.30;6.50;;;;;;;21.62;100.00;102834.81;7381934;19;20018;-81
2022/08/10 07:25:14;;;;;;;14.82;6.53;;;;;;;21.50;100.00;102834.84;7381195;19;20022;-79
2022/08/10 07:27:46;;;;;;;14.13;6.43;;;;;;;21.61;100.00;102825.03;7378379;19;20007;-81
2022/08/10 07:30:34;;;;;;;11.45;5.90;;;;;;;21.73;100.00;102830.38;7383362;19;20054;-80
2022/08/10 07:33:08;;;;;;;11.60;6.05;;;;;;;22.11;98.41;102835.63;7382435;19;20729;-80
2022/08/10 07:35:49;;;;;;;12.10;6.32;;;;;;;22.10;97.33;102830.28;7383406;19;20006;-80
2022/08/10 07:38:24;;;;;;;11.68;5.82;;;;;;;22.34;96.77;102829.31;7379443;19;20006;-81
2022/08/10 07:40:55;;;;;;;12.45;6.10;;;;;;;22.18;95.78;102829.38;7376397;19;20003;-80
2022/08/10 07:43:33;;;;;;;12.32;6.13;;;;;;;22.20;96.49;102837.38;7375254;19;20315;-76
2022/08/10 07:46:07;;;;;;;10.65;5.82;;;;;;;22.39;94.29;102836.41;7374968;19;20010;-77
2022/08/10 07:48:43;;;;;;;14.90;6.40;;;;;;;22.49;94.58;102845.28;7376515;19;20315;-79
2022/08/10 07:51:20;;;;;;;11.38;5.90;;;;;;;22.75;94.67;102835.34;7378265;19;20037;-78
2022/08/10 07:53:59;;;;;;;10.32;6.00;;;;;;;23.17;92.59;102839.53;7376786;19;20074;-78
2022/08/10 07:56:36;;;;;;;11.65;5.57;;;;;;;23.24;90.57;102839.50;7387440;19;20046;-80
2022/08/10 07:59:24;;;;;;;13.57;5.95;;;;;;;23.43;90.83;102846.47;7394205;19;20029;-80
2022/08/10 08:01:57;;;;;;;9.85;5.35;;;;;;;23.41;87.83;102846.47;7387141;19;20042;-76
2022/08/10 08:04:37;;;;;;;9.98;5.55;;;;;;;23.90;86.84;102843.38;7389536;19;20485;-77
2022/08/10 08:07:13;;;;;;;11.65;5.65;;;;;;;23.82;87.56;102841.69;7389406;19;20011;-77
2022/08/10 08:09:52;;;;;;;11.30;6.05;;;;;;;24.09;83.83;102846.72;7392256;19;20025;-76
2022/08/10 08:12:32;;;;;;;10.75;4.82;;;;;;;24.18;83.77;102843.94;7391588;19;20011;-77
2022/08/10 08:15:11;;;;;;;9.48;5.00;;;;;;;24.30;82.52;102849.19;7389926;19;20349;-77
2022/08/10 08:18:05;;;;;;;10.98;5.47;;;;;;;24.46;81.70;102855.25;7387213;19;20308;-77
2022/08/10 08:20:38;;;;;;;10.45;5.93;;;;;;;24.70;80.25;102837.94;7382336;19;20014;-78
2022/08/10 08:23:14;;;;;;;11.93;5.93;;;;;;;25.04;80.06;102844.59;7383676;19;20021;-78
2022/08/10 08:26:09;;;;;;;11.90;5.78;;;;;;;25.47;80.74;102835.84;7378890;19;20034;-75
2022/08/10 08:28:40;;;;;;;11.63;6.40;;;;;;;25.53;76.82;102843.78;7380699;19;20006;-76
2022/08/10 08:31:11;;;;;;;14.65;6.50;;;;;;;25.28;76.43;102837.06;7374878;19;20143;-76
2022/08/10 08:33:42;;;;;;;12.05;6.55;;;;;;;25.27;76.05;102830.81;7380793;19;20046;-76
2022/08/10 08:36:13;;;;;;;11.40;5.75;;;;;;;25.79;76.19;102834.41;7377614;19;20698;-76
2022/08/10 08:38:48;;;;;;;13.00;5.70;;;;;;;25.92;74.86;102835.97;7378644;19;20036;-80
2022/08/10 08:41:51;;;;;;;9.65;4.70;;;;;;;26.00;74.36;102834.84;7383530;19;20014;-81
2022/08/10 08:44:53;;;;;;;10.10;5.93;;;;;;;26.22;72.93;102842.50;7383384;19;20003;-81
2022/08/10 08:47:46;;;;;;;14.80;6.28;;;;;;;25.90;72.79;102835.09;7379489;19;20025;-81
2022/08/10 08:50:50;;;;;;;12.88;6.30;;;;;;;26.19;72.22;102840.75;7385179;19;20496;-81
2022/08/10 08:53:46;;;;;;;12.82;5.70;;;;;;;25.99;69.94;102833.13;7384066;19;20510;-80
2022/08/10 08:56:45;;;;;;;9.90;5.93;;;;;;;26.42;69.22;102823.28;7386638;19;20014;-80
2022/08/10 08:59:35;;;;;;;9.73;6.10;;;;;;;26.75;68.82;102827.03;7382685;19;20021;-76
2022/08/10 09:02:19;;;;;;;8.77;5.30;;;;;;;26.56;66.75;102823.88;7374310;19;20011;-81
2022/08/10 09:05:06;;;;;;;11.50;6.05;;;;;;;26.25;67.93;102827.19;7384035;19;20007;-76
2022/08/10 09:07:59;;;;;;;10.80;5.65;;;;;;;26.92;64.63;102817.66;7382476;19;20290;-75
2022/08/10 09:10:47;;;;;;;10.02;5.07;;;;;;;27.01;62.50;102813.88;7385453;19;20014;-76
2022/08/10 09:13:35;;;;;;;12.32;6.13;;;;;;;26.83;63.77;102816.97;7387373;19;20031;-78
2022/08/10 09:16:23;;;;;;;9.82;4.78;;;;;;;27.31;62.23;102806.81;7386298;19;20064;-76
2022/08/10 09:19:02;;;;;;;8.77;4.22;;;;;;;27.41;62.02;102810.16;7383474;19;20070;-76
2022/08/10 09:21:48;;;;;;;8.73;4.68;;;;;;;27.19;62.06;102804.44;7380514;19;20003;-79
2022/08/10 09:24:48;;;;;;;10.35;5.55;;;;;;;27.42;59.65;102796.66;7377781;19;20010;-79
2022/08/10 09:27:25;;;;;;;10.15;4.75;;;;;;;27.51;58.87;102796.41;7378671;19;20027;-81
2022/08/10 09:30:09;;;;;;;12.20;4.88;;;;;;;27.67;60.03;102803.19;7375055;19;20042;-76
2022/08/10 09:32:48;;;;;;;11.32;4.38;;;;;;;27.63;59.41;102795.22;7379323;19;20193;-79
2022/08/10 09:36:03;;;;;;;8.15;4.25;;;;;;;27.76;57.53;102791.28;7380430;19;20014;-79
2022/08/10 09:39:05;;;;;;;9.93;4.83;;;;;;;27.70;57.49;102786.03;7385650;19;20517;-82
2022/08/10 09:41:47;;;;;;;11.50;5.32;;;;;;;27.97;55.49;102782.56;7385324;19;20017;-83
2022/08/10 09:44:35;;;;;;;9.95;5.35;;;;;;;27.97;54.67;102784.38;7388584;19;20007;-83
2022/08/10 09:47:55;;;;;;;12.10;4.57;;;;;;;28.36;54.67;102781.44;7386951;19;20010;-78
2022/08/10 09:50:53;;;;;;;6.95;3.63;;;;;;;28.42;53.19;102767.75;7378562;19;20134;-77
2022/08/10 09:53:57;;;;;;;9.07;3.20;;;;;;;28.57;50.16;102765.47;7374614;19;20034;-83
2022/08/10 09:56:42;;;;;;;5.63;3.20;;;;;;;28.60;50.92;102762.66;7384096;19;20038;-77
2022/08/10 09:59:17;;;;;;;8.05;3.50;;;;;;;28.53;51.72;102762.91;7387450;19;20003;-80
2022/08/10 10:02:21;;;;;;;5.40;3.20;;;;;;;29.13;50.58;102761.84;7389026;19;20018;-79
2022/08/10 10:05:05;;;;;;;5.53;2.92;;;;;;;29.29;48.33;102757.66;7390888;19;20536;-78
2022/08/10 10:07:41;;;;;;;6.70;3.05;;;;;;;29.22;47.27;102753.41;7384133;19;20007;-77
2022/08/10 10:10:17;;;;;;;6.88;3.25;;;;;;;29.11;48.54;102750.22;7383235;19;20029;-75
2022/08/10 10:12:57;;;;;;;5.40;2.88;;;;;;;29.36;47.46;102751.13;7391033;19;20039;-78
2022/08/10 10:15:39;;;;;;;8.02;3.00;;;;;;;29.18;49.12;102755.34;7389851;19;20293;-78
2022/08/10 10:18:44;;;;;;;5.72;3.08;;;;;;;29.40;47.48;102735.66;7384340;19;20010;-78
2022/08/10 10:21:29;;;;;;;6.28;2.85;;;;;;;29.46;47.38;102744.47;7386180;19;20015;-78
2022/08/10 10:24:33;;;;;;;7.50;3.45;;;;;;;29.59;46.28;102735.00;7386572;19;20014;-77
2022/08/10 10:27:21;;;;;;;5.97;2.88;;;;;;;29.49;46.32;102733.56;7386673;19;20336;-76
2022/08/10 10:29:59;;;;;;;5.50;2.85;;;;;;;29.53;46.35;102732.50;7378835;19;20382;-77
2022/08/10 10:32:46;;;;;;;4.70;2.80;;;;;;;29.87;44.97;102740.25;7375358;19;20014;-76
2022/08/10 10:35:28;;;;;;;7.82;3.25;;;;;;;29.94;45.09;102735.50;7374990;19;20006;-77
2022/08/10 10:38:10;;;;;;;7.15;3.03;;;;;;;29.93;43.35;102740.03;7374742;19;20014;-78
2022/08/10 10:40:47;;;;;;;10.95;3.30;;;;;;;29.78;44.25;102735.19;7377071;19;20014;-79
2022/08/10 10:43:42;;;;;;;5.45;3.10;;;;;;;29.53;39.89;102732.50;7373437;19;20007;-77
2022/08/10 10:46:22;;;;;;;4.25;2.60;;;;;;;29.53;42.10;102727.09;7368156;19;20060;-78
2022/08/10 10:49:06;;;;;;;4.28;2.30;;;;;;;29.77;41.98;102729.84;7377184;19;20014;-81
2022/08/10 10:51:46;;;;;;;4.63;2.42;;;;;;;29.81;41.55;102728.78;7381713;19;20014;-80
2022/08/10 10:54:30;;;;;;;3.40;2.50;;;;;;;29.91;41.91;102733.78;7375109;19;20007;-79
2022/08/10 10:57:08;;;;;;;6.25;2.75;;;;;;;30.05;41.26;102722.47;7380788;19;20027;-80
2022/08/10 10:59:51;;;;;;;4.63;2.65;;;;;;;30.30;41.22;102724.19;7381378;19;20028;-80
2022/08/10 11:02:40;;;;;;;8.13;3.33;;;;;;;30.03;41.29;102731.59;7376816;19;20011;-79
2022/08/10 11:05:29;;;;;;;4.97;2.47;;;;;;;30.35;41.08;102722.19;7380350;19;20452;-78
2022/08/10 11:08:04;;;;;;;4.00;2.53;;;;;;;30.46;39.13;102715.38;7381176;19;20014;-79
2022/08/10 11:10:45;;;;;;;4.53;2.30;;;;;;;30.41;38.43;102711.09;7375375;19;20020;-77
2022/08/10 11:13:30;;;;;;;3.92;2.45;;;;;;;30.52;38.69;102715.13;7379060;19;20302;-78
2022/08/10 11:16:28;;;;;;;4.32;2.55;;;;;;;30.12;39.60;102713.19;7381203;19;20013;-76
2022/08/10 11:19:09;;;;;;;3.50;2.40;;;;;;;30.10;40.18;102715.06;7374611;19;20014;-76
2022/08/10 11:21:51;;;;;;;5.43;2.60;;;;;;;30.40;40.67;102703.94;7377381;19;20023;-76
2022/08/10 11:24:32;;;;;;;5.00;3.00;;;;;;;30.21;40.99;102707.38;7379841;19;20509;-76
2022/08/10 11:27:47;;;;;;;5.28;2.70;;;;;;;30.43;41.57;102701.97;7380222;19;20511;-76
2022/08/10 11:30:22;;;;;;;4.65;2.50;;;;;;;30.07;41.95;102707.06;7378892;19;20022;-76
2022/08/10 11:33:02;;;;;;;;;;;;;;;30.71;41.93;102699.03;7386750;19;20007;-75
2022/08/10 11:35:42;;;;;;;5.20;3.00;;;;;;;30.70;41.50;102690.97;7385632;19;19950;-75
2022/08/10 11:38:23;;;;;;;7.03;3.03;;;;;;;30.97;41.29;102689.81;7383027;19;20014;-78
2022/08/10 11:41:12;;;;;;;5.28;2.78;;;;;;;30.92;40.68;102688.25;7385495;19;20002;-77
2022/08/10 11:44:13;;;;;;;5.97;3.10;;;;;;;30.93;41.55;102688.19;7384737;19;20014;-75
2022/08/10 11:46:52;;;;;;;6.60;3.20;;;;;;;30.89;40.95;102686.56;7388445;19;20039;-75
2022/08/10 11:49:32;;;;;;;7.80;3.10;;;;;;;30.79;41.24;102680.66;7386149;19;20010;-75
2022/08/10 11:52:14;;;;;;;6.38;3.08;;;;;;;31.21;40.73;102685.16;7386822;19;20082;-77
2022/08/10 11:54:54;;;;;;;5.13;2.90;;;;;;;30.75;41.09;102673.59;7385216;19;20292;-78
2022/08/10 11:57:32;;;;;;;;;;;;;;;31.12;41.50;102666.59;7388272;19;20010;-76
2022/08/10 12:00:34;;;;;;;5.25;3.13;;;;;;;31.44;41.31;102665.13;7393307;19;19919;-78
2022/08/10 12:03:08;;;;;;;6.53;3.00;;;;;;;31.17;39.93;102664.59;7392507;19;20011;-75
2022/08/10 12:05:42;;;;;;;5.25;3.03;;;;;;;30.95;39.40;102664.59;7393837;19;20003;-75
2022/08/10 12:08:29;;;;;;;4.68;2.72;;;;;;;31.18;39.41;102663.63;7393476;19;20015;-75
2022/08/10 12:11:30;;;;;;;5.22;2.88;;;;;;;31.62;40.00;102660.69;7389976;19;20021;-77
2022/08/10 12:14:08;;;;;;;5.57;3.08;;;;;;;31.27;39.03;102660.47;7393341;19;20059;-77
2022/08/10 12:17:07;;;;;;;4.05;2.80;;;;;;;31.59;38.68;102650.00;7390804;19;20505;-77
2022/08/10 12:19:44;;;;;;;5.68;3.00;;;;;;;31.76;37.52;102650.13;7384719;19;20011;-78
2022/08/10 12:22:35;;;;;;;6.68;3.15;;;;;;;31.93;38.06;102650.19;7385373;19;20056;-77